Impacts TAF Board
For situational awareness. Not to be used for flight planning purposes.
IDs:

KMIA - Miami Intl, FL, US

Issued at 2107 UTC 21 Sep 2021
Updated at 2308 UTC 21 Sep 2021
Potential Impact None Slight Moderate High
Time2253Z 22/00Z 22/01Z 22/02Z 22/03Z 22/04Z 22/05Z 22/06Z 22/07Z 22/08Z 22/09Z 22/10Z 22/11Z 22/12Z>>
Type OBS PRVL PRVL PRVL PRVL PRVL PRVL PRVL PRVL PRVL PRVL PRVL PRVL PRVL
VIS 10 >6 >6 >6 >6 >6 >6 >6 >6 >6 >6 >6 >6 >6
CIG 200 -- -- -- -- -- -- -- -- -- -- -- -- --
Cover OVC SCT SCT SCT SCT SCT SCT SCT SCT SCT SCT SCT SCT SCT
FltCat VFR VFR VFR VFR VFR VFR VFR VFR VFR VFR VFR VFR VFR VFR
WX -- -- -- -- -- -- -- -- -- -- -- -- -- --
WDir 350 VRB VRB VRB VRB VRB VRB VRB VRB VRB VRB VRB VRB VRB
WSpd 4 5 5 5 5 5 5 5 5 5 5 5 5 5
WGst -- -- -- -- -- -- -- -- -- -- -- -- -- --
Raw TAF
KMIA 212107Z 2121/2224 10010KT P6SM VCTS SCT025CB BKN050
  FM220000 VRB05KT P6SM FEW025 SCT250
  FM221400 12007KT P6SM SCT025 SCT050
  FM221700 16010KT P6SM VCTS SCT025CB BKN050


Raw METAR
KMIA 212253Z 35004KT 10SM FEW020 SCT085 OVC200 28/24 A2999 RMK AO2 LTG DSNT E TSB18E45 SLP156 TS DSIPTD CB DSNT NE-E T02780239 $
KMIA 212245Z 35004KT 10SM FEW020 SCT085 OVC200 28/23 A2999 RMK AO2 LTG DSNT E TSB18E45 TS DSIPTD CB DSNT NE-E T02780233 $
KMIA 212219Z VRB03KT 10SM TS SCT035CB BKN050 BKN085 OVC200 28/24 A3000 RMK AO2 LTG DSNT N-E TSB18 OCNL LTGCG NE-E TS NE-E MOV STNRY T02780239 $
KMIA 212200Z 35005KT 10SM VCTS SCT035 BKN090 BKN130 OVC200 28/23 A3000 RMK AO2 LTG DSNT NE CB DSNT NE AND SW AND NW T02830233 $
KMIA 212153Z 32003KT 10SM FEW035 BKN090 BKN130 OVC200 28/23 A3000 RMK AO2 LTG DSNT NE SLP159 CB DSNT NE AND SW AND NW T02830233 $
KMIA 212053Z 33006KT 10SM SCT031CB SCT150 OVC250 27/23 A3000 RMK AO2 SLP159 CB NE-E AND DSNT SW AND NW MOV NW T02720228 55003 $

METAR Board
Radar Display
Forecast Discussion
For situational awareness. Not to be used for flight planning purposes.